Terminal Aerodrome Forecast
Issued by NWS Cleveland, OH

Home | Current Version | Previous Version | Text Only | Print | Product List | Glossary Off
Versions: 1 2 3 4 5 6 7 8 9 10 11 12 13 14 15 16 17 18 19 20 21 22 23 24 25 26 27 28

000
FTUS41 KCLE 282104 AAB
TAFCLE
TAF AMD
KCLE 282104Z 2821/2924 19006KT P6SM -SHRA BKN080 OVC120
     FM282230 17006KT P6SM SCT100 BKN200
     FM290200 13006KT 6SM -SHRA BKN050 OVC080
     FM290600 10006KT 5SM -RA BKN020 OVC050
     FM291000 06007KT 4SM -RA BR OVC008=

USA.gov is the U.S. government's official web portal to all federal, state and local government web resources and services.